sensor_id;sensor_type;location;lat;lon;timestamp;temperature;humidity
46378;DHT22;32083;47.360;9.650;2023-02-01T00:02:05;3.30;99.90
46378;DHT22;32083;47.360;9.650;2023-02-01T00:04:31;3.30;99.90
46378;DHT22;32083;47.360;9.650;2023-02-01T00:07:13;3.30;99.90
46378;DHT22;32083;47.360;9.650;2023-02-01T00:10:14;3.30;99.90
46378;DHT22;32083;47.360;9.650;2023-02-01T00:12:46;3.30;99.90
46378;DHT22;32083;47.360;9.650;2023-02-01T00:15:12;3.20;99.90
46378;DHT22;32083;47.360;9.650;2023-02-01T00:18:14;3.20;99.90
46378;DHT22;32083;47.360;9.650;2023-02-01T00:21:17;3.10;99.90
46378;DHT22;32083;47.360;9.650;2023-02-01T00:23:56;3.10;99.90
46378;DHT22;32083;47.360;9.650;2023-02-01T00:26:47;3.00;99.90
46378;DHT22;32083;47.360;9.650;2023-02-01T00:29:19;3.00;99.90
46378;DHT22;32083;47.360;9.650;2023-02-01T00:32:05;3.00;99.90
46378;DHT22;32083;47.360;9.650;2023-02-01T00:34:40;3.00;99.90
46378;DHT22;32083;47.360;9.650;2023-02-01T00:37:29;2.90;99.90
46378;DHT22;32083;47.360;9.650;2023-02-01T00:39:58;2.90;99.90
46378;DHT22;32083;47.360;9.650;2023-02-01T00:42:44;2.90;99.90
46378;DHT22;32083;47.360;9.650;2023-02-01T00:45:26;2.90;99.90
46378;DHT22;32083;47.360;9.650;2023-02-01T00:47:52;2.90;99.90
46378;DHT22;32083;47.360;9.650;2023-02-01T00:50:20;2.90;99.90
46378;DHT22;32083;47.360;9.650;2023-02-01T00:52:47;3.00;99.90
46378;DHT22;32083;47.360;9.650;2023-02-01T00:55:22;3.00;99.90
46378;DHT22;32083;47.360;9.650;2023-02-01T00:57:50;3.00;99.90
46378;DHT22;32083;47.360;9.650;2023-02-01T01:00:23;3.10;99.90
46378;DHT22;32083;47.360;9.650;2023-02-01T01:02:53;3.10;99.90
46378;DHT22;32083;47.360;9.650;2023-02-01T01:05:41;3.10;99.90
46378;DHT22;32083;47.360;9.650;2023-02-01T01:08:10;3.10;99.90
46378;DHT22;32083;47.360;9.650;2023-02-01T01:10:39;3.20;99.90
46378;DHT22;32083;47.360;9.650;2023-02-01T01:13:08;3.20;99.90
46378;DHT22;32083;47.360;9.650;2023-02-01T01:15:52;3.20;99.90
46378;DHT22;32083;47.360;9.650;2023-02-01T01:18:43;3.20;99.90
46378;DHT22;32083;47.360;9.650;2023-02-01T01:21:12;3.20;99.90
46378;DHT22;32083;47.360;9.650;2023-02-01T01:23:44;3.20;99.90
46378;DHT22;32083;47.360;9.650;2023-02-01T01:26:40;3.30;99.90
46378;DHT22;32083;47.360;9.650;2023-02-01T01:29:11;3.30;99.90
46378;DHT22;32083;47.360;9.650;2023-02-01T01:31:37;3.30;99.90
46378;DHT22;32083;47.360;9.650;2023-02-01T01:34:08;3.30;99.90
46378;DHT22;32083;47.360;9.650;2023-02-01T01:36:37;3.30;99.90
46378;DHT22;32083;47.360;9.650;2023-02-01T01:39:23;3.30;99.90
46378;DHT22;32083;47.360;9.650;2023-02-01T01:42:03;3.40;99.90
46378;DHT22;32083;47.360;9.650;2023-02-01T01:50:24;3.40;99.90
46378;DHT22;32083;47.360;9.650;2023-02-01T01:52:54;3.30;99.90
46378;DHT22;32083;47.360;9.650;2023-02-01T01:55:45;3.30;99.90
46378;DHT22;32083;47.360;9.650;2023-02-01T01:58:30;3.30;99.90
46378;DHT22;32083;47.360;9.650;2023-02-01T02:01:02;3.30;99.90
46378;DHT22;32083;47.360;9.650;2023-02-01T02:03:35;3.20;99.90
46378;DHT22;32083;47.360;9.650;2023-02-01T02:06:11;3.20;99.90
46378;DHT22;32083;47.360;9.650;2023-02-01T02:09:02;3.20;99.90
46378;DHT22;32083;47.360;9.650;2023-02-01T02:11:30;3.10;99.90
46378;DHT22;32083;47.360;9.650;2023-02-01T02:13:59;3.10;99.90
46378;DHT22;32083;47.360;9.650;2023-02-01T02:48:11;2.90;99.90
46378;DHT22;32083;47.360;9.650;2023-02-01T02:50:46;2.80;99.90
46378;DHT22;32083;47.360;9.650;2023-02-01T02:56:36;2.90;99.90
46378;DHT22;32083;47.360;9.650;2023-02-01T02:59:25;3.00;99.90
46378;DHT22;32083;47.360;9.650;2023-02-01T03:02:18;3.00;99.90
46378;DHT22;32083;47.360;9.650;2023-02-01T03:05:03;3.00;99.90
46378;DHT22;32083;47.360;9.650;2023-02-01T03:07:55;2.90;99.90
46378;DHT22;32083;47.360;9.650;2023-02-01T03:10:42;2.90;99.90
46378;DHT22;32083;47.360;9.650;2023-02-01T03:13:47;2.90;99.90
46378;DHT22;32083;47.360;9.650;2023-02-01T03:17:05;2.90;99.90
46378;DHT22;32083;47.360;9.650;2023-02-01T03:20:04;2.90;99.90
46378;DHT22;32083;47.360;9.650;2023-02-01T03:25:30;2.80;99.90
46378;DHT22;32083;47.360;9.650;2023-02-01T03:28:17;2.80;99.90
46378;DHT22;32083;47.360;9.650;2023-02-01T03:30:48;2.80;99.90
46378;DHT22;32083;47.360;9.650;2023-02-01T03:33:37;2.70;99.90
46378;DHT22;32083;47.360;9.650;2023-02-01T03:39:32;2.60;99.90
46378;DHT22;32083;47.360;9.650;2023-02-01T03:42:42;2.60;99.90
46378;DHT22;32083;47.360;9.650;2023-02-01T03:45:35;2.50;99.90
46378;DHT22;32083;47.360;9.650;2023-02-01T03:48:07;2.50;99.90
46378;DHT22;32083;47.360;9.650;2023-02-01T03:53:38;2.40;99.90
46378;DHT22;32083;47.360;9.650;2023-02-01T03:56:12;2.40;99.90
46378;DHT22;32083;47.360;9.650;2023-02-01T03:59:07;2.40;99.90
46378;DHT22;32083;47.360;9.650;2023-02-01T04:04:19;2.40;99.90
46378;DHT22;32083;47.360;9.650;2023-02-01T04:07:12;2.40;99.90
46378;DHT22;32083;47.360;9.650;2023-02-01T04:09:37;2.30;99.90
46378;DHT22;32083;47.360;9.650;2023-02-01T04:12:16;2.40;99.90
46378;DHT22;32083;47.360;9.650;2023-02-01T04:14:43;2.30;99.90
46378;DHT22;32083;47.360;9.650;2023-02-01T04:17:09;2.40;99.90
46378;DHT22;32083;47.360;9.650;2023-02-01T04:19:38;2.40;99.90
46378;DHT22;32083;47.360;9.650;2023-02-01T04:22:03;2.40;99.90
46378;DHT22;32083;47.360;9.650;2023-02-01T04:27:15;2.50;99.90
46378;DHT22;32083;47.360;9.650;2023-02-01T04:29:50;2.50;99.90
46378;DHT22;32083;47.360;9.650;2023-02-01T04:32:21;2.60;99.90
46378;DHT22;32083;47.360;9.650;2023-02-01T04:34:48;2.70;99.90
46378;DHT22;32083;47.360;9.650;2023-02-01T04:37:13;2.70;99.90
46378;DHT22;32083;47.360;9.650;2023-02-01T04:39:39;2.70;99.90
46378;DHT22;32083;47.360;9.650;2023-02-01T04:42:13;2.70;99.90
46378;DHT22;32083;47.360;9.650;2023-02-01T04:44:47;2.70;99.90
46378;DHT22;32083;47.360;9.650;2023-02-01T04:47:25;2.70;99.90
46378;DHT22;32083;47.360;9.650;2023-02-01T04:49:58;2.80;99.90
46378;DHT22;32083;47.360;9.650;2023-02-01T04:52:49;2.80;99.90
46378;DHT22;32083;47.360;9.650;2023-02-01T04:55:38;2.80;99.90
46378;DHT22;32083;47.360;9.650;2023-02-01T04:58:08;2.80;99.90
46378;DHT22;32083;47.360;9.650;2023-02-01T05:01:13;2.90;99.90
46378;DHT22;32083;47.360;9.650;2023-02-01T05:03:54;2.90;99.90
46378;DHT22;32083;47.360;9.650;2023-02-01T05:06:27;2.90;99.90
46378;DHT22;32083;47.360;9.650;2023-02-01T05:09:11;2.90;99.90
46378;DHT22;32083;47.360;9.650;2023-02-01T05:11:36;2.80;99.90
46378;DHT22;32083;47.360;9.650;2023-02-01T05:14:25;2.90;99.90
46378;DHT22;32083;47.360;9.650;2023-02-01T05:16:54;2.90;99.90
46378;DHT22;32083;47.360;9.650;2023-02-01T05:19:26;3.00;99.90
46378;DHT22;32083;47.360;9.650;2023-02-01T05:24:17;3.00;99.90
46378;DHT22;32083;47.360;9.650;2023-02-01T05:27:07;3.00;99.90
46378;DHT22;32083;47.360;9.650;2023-02-01T05:29:44;3.00;99.90
46378;DHT22;32083;47.360;9.650;2023-02-01T05:32:10;3.00;99.90
46378;DHT22;32083;47.360;9.650;2023-02-01T05:34:36;3.00;99.90
46378;DHT22;32083;47.360;9.650;2023-02-01T05:37:04;2.90;99.90
46378;DHT22;32083;47.360;9.650;2023-02-01T05:39:31;2.90;99.90
46378;DHT22;32083;47.360;9.650;2023-02-01T05:42:05;2.90;99.90
46378;DHT22;32083;47.360;9.650;2023-02-01T05:44:35;2.90;99.90
46378;DHT22;32083;47.360;9.650;2023-02-01T05:47:04;2.90;99.90
46378;DHT22;32083;47.360;9.650;2023-02-01T05:49:31;2.90;99.90
46378;DHT22;32083;47.360;9.650;2023-02-01T05:52:00;2.90;99.90
46378;DHT22;32083;47.360;9.650;2023-02-01T05:54:31;2.90;99.90
46378;DHT22;32083;47.360;9.650;2023-02-01T05:57:09;2.90;99.90
46378;DHT22;32083;47.360;9.650;2023-02-01T05:59:48;2.90;99.90
46378;DHT22;32083;47.360;9.650;2023-02-01T06:02:36;2.90;99.90
46378;DHT22;32083;47.360;9.650;2023-02-01T06:05:03;2.90;99.90
46378;DHT22;32083;47.360;9.650;2023-02-01T06:07:30;3.00;99.90
46378;DHT22;32083;47.360;9.650;2023-02-01T06:09:58;3.00;99.90
46378;DHT22;32083;47.360;9.650;2023-02-01T06:12:31;3.00;99.90
46378;DHT22;32083;47.360;9.650;2023-02-01T06:15:06;3.00;99.90
46378;DHT22;32083;47.360;9.650;2023-02-01T06:17:33;3.00;99.90
46378;DHT22;32083;47.360;9.650;2023-02-01T06:20:00;3.10;99.90
46378;DHT22;32083;47.360;9.650;2023-02-01T06:22:32;3.10;99.90
46378;DHT22;32083;47.360;9.650;2023-02-01T06:24:59;3.20;99.90
46378;DHT22;32083;47.360;9.650;2023-02-01T06:27:32;3.20;99.90
46378;DHT22;32083;47.360;9.650;2023-02-01T06:30:09;3.10;99.90
46378;DHT22;32083;47.360;9.650;2023-02-01T06:32:37;3.10;99.90
46378;DHT22;32083;47.360;9.650;2023-02-01T06:35:05;3.10;99.90
46378;DHT22;32083;47.360;9.650;2023-02-01T06:37:33;3.10;99.90
46378;DHT22;32083;47.360;9.650;2023-02-01T06:40:38;3.10;99.90
46378;DHT22;32083;47.360;9.650;2023-02-01T06:43:16;3.10;99.90
46378;DHT22;32083;47.360;9.650;2023-02-01T06:45:42;3.00;99.90
46378;DHT22;32083;47.360;9.650;2023-02-01T06:48:08;3.00;99.90
46378;DHT22;32083;47.360;9.650;2023-02-01T06:50:34;3.00;99.90
46378;DHT22;32083;47.360;9.650;2023-02-01T06:53:04;2.90;99.90
46378;DHT22;32083;47.360;9.650;2023-02-01T06:55:52;2.90;99.90
46378;DHT22;32083;47.360;9.650;2023-02-01T06:58:20;3.00;99.90
46378;DHT22;32083;47.360;9.650;2023-02-01T07:00:45;3.00;99.90
46378;DHT22;32083;47.360;9.650;2023-02-01T07:03:12;3.00;99.90
46378;DHT22;32083;47.360;9.650;2023-02-01T07:06:05;3.00;99.90
46378;DHT22;32083;47.360;9.650;2023-02-01T07:08:35;3.00;99.90
46378;DHT22;32083;47.360;9.650;2023-02-01T07:11:14;3.00;99.90
46378;DHT22;32083;47.360;9.650;2023-02-01T07:13:45;3.00;99.90
46378;DHT22;32083;47.360;9.650;2023-02-01T07:16:16;3.10;99.90
46378;DHT22;32083;47.360;9.650;2023-02-01T07:18:43;3.10;99.90
46378;DHT22;32083;47.360;9.650;2023-02-01T07:21:10;3.10;99.90
46378;DHT22;32083;47.360;9.650;2023-02-01T07:23:58;3.00;99.90
46378;DHT22;32083;47.360;9.650;2023-02-01T07:26:45;3.00;99.90
46378;DHT22;32083;47.360;9.650;2023-02-01T07:29:13;3.10;99.90
46378;DHT22;32083;47.360;9.650;2023-02-01T07:32:01;3.10;99.90
46378;DHT22;32083;47.360;9.650;2023-02-01T07:34:28;3.10;99.90
46378;DHT22;32083;47.360;9.650;2023-02-01T07:36:58;3.10;99.90
46378;DHT22;32083;47.360;9.650;2023-02-01T07:39:28;3.10;99.90
46378;DHT22;32083;47.360;9.650;2023-02-01T07:42:07;3.10;99.90
46378;DHT22;32083;47.360;9.650;2023-02-01T07:44:44;3.20;99.90
46378;DHT22;32083;47.360;9.650;2023-02-01T07:47:22;3.20;99.90
46378;DHT22;32083;47.360;9.650;2023-02-01T07:49:49;3.20;99.90
46378;DHT22;32083;47.360;9.650;2023-02-01T07:52:17;3.20;99.90
46378;DHT22;32083;47.360;9.650;2023-02-01T07:55:18;3.20;99.90
46378;DHT22;32083;47.360;9.650;2023-02-01T07:57:44;3.20;99.90
46378;DHT22;32083;47.360;9.650;2023-02-01T08:00:22;3.10;99.90
46378;DHT22;32083;47.360;9.650;2023-02-01T08:03:06;3.10;99.90
46378;DHT22;32083;47.360;9.650;2023-02-01T08:05:33;3.00;99.90
46378;DHT22;32083;47.360;9.650;2023-02-01T08:07:59;3.00;99.90
46378;DHT22;32083;47.360;9.650;2023-02-01T08:10:25;3.00;99.90
46378;DHT22;32083;47.360;9.650;2023-02-01T08:12:50;3.00;99.90
46378;DHT22;32083;47.360;9.650;2023-02-01T08:15:17;3.10;99.90
46378;DHT22;32083;47.360;9.650;2023-02-01T08:17:50;3.10;99.90
46378;DHT22;32083;47.360;9.650;2023-02-01T08:20:17;3.10;99.90
46378;DHT22;32083;47.360;9.650;2023-02-01T08:22:43;3.10;99.90
46378;DHT22;32083;47.360;9.650;2023-02-01T08:25:09;3.10;99.90
46378;DHT22;32083;47.360;9.650;2023-02-01T08:27:36;3.10;99.90
46378;DHT22;32083;47.360;9.650;2023-02-01T08:30:03;3.10;99.90
46378;DHT22;32083;47.360;9.650;2023-02-01T08:32:30;3.10;99.90
46378;DHT22;32083;47.360;9.650;2023-02-01T08:34:55;3.10;99.90
46378;DHT22;32083;47.360;9.650;2023-02-01T08:37:21;3.10;99.90
46378;DHT22;32083;47.360;9.650;2023-02-01T08:39:48;3.20;99.90
46378;DHT22;32083;47.360;9.650;2023-02-01T08:42:15;3.20;99.90
46378;DHT22;32083;47.360;9.650;2023-02-01T08:45:01;3.30;99.90
46378;DHT22;32083;47.360;9.650;2023-02-01T08:47:28;3.40;99.90
46378;DHT22;32083;47.360;9.650;2023-02-01T08:49:54;3.40;99.90
46378;DHT22;32083;47.360;9.650;2023-02-01T08:52:20;3.30;99.90
46378;DHT22;32083;47.360;9.650;2023-02-01T08:54:45;3.40;99.90
46378;DHT22;32083;47.360;9.650;2023-02-01T08:57:11;3.40;99.90
46378;DHT22;32083;47.360;9.650;2023-02-01T08:59:37;3.40;99.90
46378;DHT22;32083;47.360;9.650;2023-02-01T09:02:03;3.40;99.90
46378;DHT22;32083;47.360;9.650;2023-02-01T09:04:29;3.40;99.90
46378;DHT22;32083;47.360;9.650;2023-02-01T09:06:55;3.40;99.90
46378;DHT22;32083;47.360;9.650;2023-02-01T09:09:24;3.40;99.90
46378;DHT22;32083;47.360;9.650;2023-02-01T09:11:52;3.40;99.90
46378;DHT22;32083;47.360;9.650;2023-02-01T09:14:18;3.40;99.90
46378;DHT22;32083;47.360;9.650;2023-02-01T09:16:44;3.40;99.90
46378;DHT22;32083;47.360;9.650;2023-02-01T09:19:10;3.50;99.90
46378;DHT22;32083;47.360;9.650;2023-02-01T09:21:36;3.50;99.90
46378;DHT22;32083;47.360;9.650;2023-02-01T09:24:02;3.50;99.90
46378;DHT22;32083;47.360;9.650;2023-02-01T09:26:30;3.50;99.90
46378;DHT22;32083;47.360;9.650;2023-02-01T09:28:56;3.50;99.90
46378;DHT22;32083;47.360;9.650;2023-02-01T09:31:21;3.50;99.90
46378;DHT22;32083;47.360;9.650;2023-02-01T09:33:47;3.50;99.90
46378;DHT22;32083;47.360;9.650;2023-02-01T09:36:13;3.50;99.90
46378;DHT22;32083;47.360;9.650;2023-02-01T09:38:39;3.50;99.90
46378;DHT22;32083;47.360;9.650;2023-02-01T09:46:43;3.60;99.90
46378;DHT22;32083;47.360;9.650;2023-02-01T09:49:22;3.70;99.90
46378;DHT22;32083;47.360;9.650;2023-02-01T09:51:51;3.70;99.90
46378;DHT22;32083;47.360;9.650;2023-02-01T09:54:47;3.70;99.90
46378;DHT22;32083;47.360;9.650;2023-02-01T09:57:21;3.70;99.90
46378;DHT22;32083;47.360;9.650;2023-02-01T10:00:14;3.80;99.90
46378;DHT22;32083;47.360;9.650;2023-02-01T10:02:42;3.70;99.90
46378;DHT22;32083;47.360;9.650;2023-02-01T10:05:14;3.80;99.90
46378;DHT22;32083;47.360;9.650;2023-02-01T10:10:30;3.90;99.90
46378;DHT22;32083;47.360;9.650;2023-02-01T10:18:43;4.00;99.90
46378;DHT22;32083;47.360;9.650;2023-02-01T10:21:37;4.00;99.90
46378;DHT22;32083;47.360;9.650;2023-02-01T10:26:37;4.10;99.90
46378;DHT22;32083;47.360;9.650;2023-02-01T10:29:19;4.10;99.90
46378;DHT22;32083;47.360;9.650;2023-02-01T10:31:45;4.10;99.90
46378;DHT22;32083;47.360;9.650;2023-02-01T10:34:26;4.20;99.90
46378;DHT22;32083;47.360;9.650;2023-02-01T10:39:23;4.20;99.90
46378;DHT22;32083;47.360;9.650;2023-02-01T10:41:49;4.20;99.90
46378;DHT22;32083;47.360;9.650;2023-02-01T10:44:22;4.30;99.90
46378;DHT22;32083;47.360;9.650;2023-02-01T10:46:50;4.30;99.90
46378;DHT22;32083;47.360;9.650;2023-02-01T10:49:42;4.30;99.90
46378;DHT22;32083;47.360;9.650;2023-02-01T10:52:16;4.30;99.90
46378;DHT22;32083;47.360;9.650;2023-02-01T10:54:42;4.40;99.90
46378;DHT22;32083;47.360;9.650;2023-02-01T10:57:10;4.40;99.90
46378;DHT22;32083;47.360;9.650;2023-02-01T10:59:36;4.40;99.90
46378;DHT22;32083;47.360;9.650;2023-02-01T11:02:31;4.50;99.90
46378;DHT22;32083;47.360;9.650;2023-02-01T11:05:24;4.50;99.90
46378;DHT22;32083;47.360;9.650;2023-02-01T11:07:54;4.50;99.90
46378;DHT22;32083;47.360;9.650;2023-02-01T11:10:39;4.40;99.90
46378;DHT22;32083;47.360;9.650;2023-02-01T11:13:15;4.50;99.90
46378;DHT22;32083;47.360;9.650;2023-02-01T11:15:46;4.50;99.90
46378;DHT22;32083;47.360;9.650;2023-02-01T11:18:28;4.50;99.90
46378;DHT22;32083;47.360;9.650;2023-02-01T11:20:55;4.50;99.90
46378;DHT22;32083;47.360;9.650;2023-02-01T11:23:29;4.50;99.90
46378;DHT22;32083;47.360;9.650;2023-02-01T11:26:11;4.50;99.90
46378;DHT22;32083;47.360;9.650;2023-02-01T11:28:40;4.50;99.90
46378;DHT22;32083;47.360;9.650;2023-02-01T11:31:12;4.60;99.90
46378;DHT22;32083;47.360;9.650;2023-02-01T11:33:48;4.60;99.90
46378;DHT22;32083;47.360;9.650;2023-02-01T11:36:20;4.70;99.90
46378;DHT22;32083;47.360;9.650;2023-02-01T11:41:34;4.80;99.90
46378;DHT22;32083;47.360;9.650;2023-02-01T11:44:22;4.80;99.90
46378;DHT22;32083;47.360;9.650;2023-02-01T11:46:49;4.80;99.90
46378;DHT22;32083;47.360;9.650;2023-02-01T11:49:22;4.90;99.90
46378;DHT22;32083;47.360;9.650;2023-02-01T11:52:02;5.00;99.90
46378;DHT22;32083;47.360;9.650;2023-02-01T12:06:18;5.20;99.90
46378;DHT22;32083;47.360;9.650;2023-02-01T12:11:45;5.40;99.90
46378;DHT22;32083;47.360;9.650;2023-02-01T12:17:52;5.50;99.90
46378;DHT22;32083;47.360;9.650;2023-02-01T12:23:30;5.60;99.90
46378;DHT22;32083;47.360;9.650;2023-02-01T12:32:01;5.50;99.90
46378;DHT22;32083;47.360;9.650;2023-02-01T12:34:41;5.60;99.90
46378;DHT22;32083;47.360;9.650;2023-02-01T12:40:19;5.70;99.90
46378;DHT22;32083;47.360;9.650;2023-02-01T12:45:38;5.70;99.90
46378;DHT22;32083;47.360;9.650;2023-02-01T12:48:21;5.60;99.90
46378;DHT22;32083;47.360;9.650;2023-02-01T12:50:58;5.70;99.90
46378;DHT22;32083;47.360;9.650;2023-02-01T12:53:53;5.70;99.90
46378;DHT22;32083;47.360;9.650;2023-02-01T12:56:40;5.80;99.90
46378;DHT22;32083;47.360;9.650;2023-02-01T12:59:33;5.80;99.90
46378;DHT22;32083;47.360;9.650;2023-02-01T13:07:27;6.10;99.90
46378;DHT22;32083;47.360;9.650;2023-02-01T13:10:00;6.10;99.90
46378;DHT22;32083;47.360;9.650;2023-02-01T13:18:14;6.30;99.70
46378;DHT22;32083;47.360;9.650;2023-02-01T13:23:14;6.40;98.70
46378;DHT22;32083;47.360;9.650;2023-02-01T13:25:47;6.50;98.80
46378;DHT22;32083;47.360;9.650;2023-02-01T13:28:42;6.50;99.30
46378;DHT22;32083;47.360;9.650;2023-02-01T13:31:20;6.40;99.60
46378;DHT22;32083;47.360;9.650;2023-02-01T13:43:22;6.50;99.20
46378;DHT22;32083;47.360;9.650;2023-02-01T13:45:51;6.50;99.20
46378;DHT22;32083;47.360;9.650;2023-02-01T13:48:33;6.50;99.10
46378;DHT22;32083;47.360;9.650;2023-02-01T13:51:02;6.50;98.70
46378;DHT22;32083;47.360;9.650;2023-02-01T13:53:36;6.60;99.00
46378;DHT22;32083;47.360;9.650;2023-02-01T13:56:04;6.60;99.00
46378;DHT22;32083;47.360;9.650;2023-02-01T14:04:00;6.60;98.70
46378;DHT22;32083;47.360;9.650;2023-02-01T14:09:12;6.60;99.00
46378;DHT22;32083;47.360;9.650;2023-02-01T14:19:32;6.70;98.00
46378;DHT22;32083;47.360;9.650;2023-02-01T14:22:00;6.60;98.80
46378;DHT22;32083;47.360;9.650;2023-02-01T14:24:33;6.60;98.70
46378;DHT22;32083;47.360;9.650;2023-02-01T14:27:06;6.60;99.00
46378;DHT22;32083;47.360;9.650;2023-02-01T14:29:44;6.70;98.70
46378;DHT22;32083;47.360;9.650;2023-02-01T14:32:22;6.60;99.20
46378;DHT22;32083;47.360;9.650;2023-02-01T14:34:56;6.70;99.10
46378;DHT22;32083;47.360;9.650;2023-02-01T14:37:36;6.70;98.80
46378;DHT22;32083;47.360;9.650;2023-02-01T14:40:18;6.70;98.50
46378;DHT22;32083;47.360;9.650;2023-02-01T14:42:53;6.70;98.10
46378;DHT22;32083;47.360;9.650;2023-02-01T15:00:52;6.70;98.20
46378;DHT22;32083;47.360;9.650;2023-02-01T15:09:32;6.70;98.30
46378;DHT22;32083;47.360;9.650;2023-02-01T15:14:43;6.70;97.20
46378;DHT22;32083;47.360;9.650;2023-02-01T15:17:21;6.70;97.30
46378;DHT22;32083;47.360;9.650;2023-02-01T15:19:58;6.70;97.80
46378;DHT22;32083;47.360;9.650;2023-02-01T15:22:25;6.70;97.60
46378;DHT22;32083;47.360;9.650;2023-02-01T15:24:59;6.70;98.20
46378;DHT22;32083;47.360;9.650;2023-02-01T15:27:29;6.60;97.90
46378;DHT22;32083;47.360;9.650;2023-02-01T15:30:12;6.60;98.30
46378;DHT22;32083;47.360;9.650;2023-02-01T15:32:41;6.60;98.20
46378;DHT22;32083;47.360;9.650;2023-02-01T15:35:36;6.60;98.10
46378;DHT22;32083;47.360;9.650;2023-02-01T15:43:33;6.60;97.20
46378;DHT22;32083;47.360;9.650;2023-02-01T15:46:02;6.60;97.70
46378;DHT22;32083;47.360;9.650;2023-02-01T15:48:40;6.60;97.30
46378;DHT22;32083;47.360;9.650;2023-02-01T15:51:13;6.60;97.70
46378;DHT22;32083;47.360;9.650;2023-02-01T15:53:43;6.60;97.60
46378;DHT22;32083;47.360;9.650;2023-02-01T15:56:09;6.60;97.20
46378;DHT22;32083;47.360;9.650;2023-02-01T15:58:35;6.60;97.00
46378;DHT22;32083;47.360;9.650;2023-02-01T16:01:05;6.60;96.80
46378;DHT22;32083;47.360;9.650;2023-02-01T16:03:44;6.60;97.30
46378;DHT22;32083;47.360;9.650;2023-02-01T16:06:26;6.60;97.40
46378;DHT22;32083;47.360;9.650;2023-02-01T16:09:09;6.70;97.30
46378;DHT22;32083;47.360;9.650;2023-02-01T16:14:20;6.60;96.60
46378;DHT22;32083;47.360;9.650;2023-02-01T16:16:47;6.60;96.90
46378;DHT22;32083;47.360;9.650;2023-02-01T16:19:13;6.50;97.10
46378;DHT22;32083;47.360;9.650;2023-02-01T16:21:39;6.50;96.40
46378;DHT22;32083;47.360;9.650;2023-02-01T16:24:05;6.60;96.70
46378;DHT22;32083;47.360;9.650;2023-02-01T16:26:32;6.60;97.00
46378;DHT22;32083;47.360;9.650;2023-02-01T16:28:59;6.50;97.70
46378;DHT22;32083;47.360;9.650;2023-02-01T16:31:32;6.50;97.50
46378;DHT22;32083;47.360;9.650;2023-02-01T16:33:59;6.40;97.90
46378;DHT22;32083;47.360;9.650;2023-02-01T16:36:25;6.40;98.20
46378;DHT22;32083;47.360;9.650;2023-02-01T16:38:53;6.30;98.50
46378;DHT22;32083;47.360;9.650;2023-02-01T16:41:22;6.30;99.10
46378;DHT22;32083;47.360;9.650;2023-02-01T16:43:53;6.30;98.80
46378;DHT22;32083;47.360;9.650;2023-02-01T16:46:21;6.20;99.20
46378;DHT22;32083;47.360;9.650;2023-02-01T16:48:58;6.10;99.10
46378;DHT22;32083;47.360;9.650;2023-02-01T16:51:26;6.10;99.20
46378;DHT22;32083;47.360;9.650;2023-02-01T16:53:53;6.20;99.50
46378;DHT22;32083;47.360;9.650;2023-02-01T16:56:31;6.10;99.00
46378;DHT22;32083;47.360;9.650;2023-02-01T16:58:57;6.20;98.70
46378;DHT22;32083;47.360;9.650;2023-02-01T17:01:23;6.20;98.50
46378;DHT22;32083;47.360;9.650;2023-02-01T17:03:49;6.20;98.70
46378;DHT22;32083;47.360;9.650;2023-02-01T17:06:21;6.20;98.60
46378;DHT22;32083;47.360;9.650;2023-02-01T17:08:54;6.20;98.80
46378;DHT22;32083;47.360;9.650;2023-02-01T17:11:20;6.30;98.40
46378;DHT22;32083;47.360;9.650;2023-02-01T17:13:47;6.30;98.00
46378;DHT22;32083;47.360;9.650;2023-02-01T17:16:28;6.30;97.60
46378;DHT22;32083;47.360;9.650;2023-02-01T17:19:01;6.30;96.70
46378;DHT22;32083;47.360;9.650;2023-02-01T17:21:29;6.40;96.90
46378;DHT22;32083;47.360;9.650;2023-02-01T17:23:56;6.30;96.30
46378;DHT22;32083;47.360;9.650;2023-02-01T17:26:24;6.30;96.10
46378;DHT22;32083;47.360;9.650;2023-02-01T17:28:50;6.30;97.20
46378;DHT22;32083;47.360;9.650;2023-02-01T17:31:17;6.30;96.60
46378;DHT22;32083;47.360;9.650;2023-02-01T17:33:43;6.30;97.30
46378;DHT22;32083;47.360;9.650;2023-02-01T17:36:15;6.30;96.90
46378;DHT22;32083;47.360;9.650;2023-02-01T17:38:42;6.30;97.10
46378;DHT22;32083;47.360;9.650;2023-02-01T17:41:12;6.30;97.30
46378;DHT22;32083;47.360;9.650;2023-02-01T17:43:39;6.30;97.20
46378;DHT22;32083;47.360;9.650;2023-02-01T17:46:15;6.20;97.10
46378;DHT22;32083;47.360;9.650;2023-02-01T17:48:43;6.20;97.00
46378;DHT22;32083;47.360;9.650;2023-02-01T17:51:17;6.10;97.00
46378;DHT22;32083;47.360;9.650;2023-02-01T17:53:44;6.10;97.30
46378;DHT22;32083;47.360;9.650;2023-02-01T17:56:19;6.10;96.90
46378;DHT22;32083;47.360;9.650;2023-02-01T17:58:46;6.20;96.90
46378;DHT22;32083;47.360;9.650;2023-02-01T18:01:23;6.20;97.30
46378;DHT22;32083;47.360;9.650;2023-02-01T18:03:49;6.20;96.70
46378;DHT22;32083;47.360;9.650;2023-02-01T18:06:18;6.30;96.30
46378;DHT22;32083;47.360;9.650;2023-02-01T18:08:45;6.30;96.00
46378;DHT22;32083;47.360;9.650;2023-02-01T18:11:17;6.30;96.20
46378;DHT22;32083;47.360;9.650;2023-02-01T18:13:43;6.30;96.50
46378;DHT22;32083;47.360;9.650;2023-02-01T18:16:22;6.30;96.70
46378;DHT22;32083;47.360;9.650;2023-02-01T18:18:49;6.30;96.90
46378;DHT22;32083;47.360;9.650;2023-02-01T18:21:18;6.30;96.50
46378;DHT22;32083;47.360;9.650;2023-02-01T18:23:44;6.30;96.20
46378;DHT22;32083;47.360;9.650;2023-02-01T18:26:12;6.30;96.10
46378;DHT22;32083;47.360;9.650;2023-02-01T18:28:38;6.20;96.20
46378;DHT22;32083;47.360;9.650;2023-02-01T18:31:05;6.20;96.30
46378;DHT22;32083;47.360;9.650;2023-02-01T18:33:31;6.20;96.50
46378;DHT22;32083;47.360;9.650;2023-02-01T18:35:57;6.30;96.30
46378;DHT22;32083;47.360;9.650;2023-02-01T18:38:24;6.20;96.60
46378;DHT22;32083;47.360;9.650;2023-02-01T18:40:50;6.20;96.30
46378;DHT22;32083;47.360;9.650;2023-02-01T18:43:17;6.20;96.30
46378;DHT22;32083;47.360;9.650;2023-02-01T18:45:46;6.20;96.40
46378;DHT22;32083;47.360;9.650;2023-02-01T18:48:14;6.20;96.20
46378;DHT22;32083;47.360;9.650;2023-02-01T18:50:42;6.20;96.50
46378;DHT22;32083;47.360;9.650;2023-02-01T18:53:22;6.20;96.50
46378;DHT22;32083;47.360;9.650;2023-02-01T18:55:57;6.20;96.40
46378;DHT22;32083;47.360;9.650;2023-02-01T18:58:29;6.20;96.20
46378;DHT22;32083;47.360;9.650;2023-02-01T19:00:57;6.20;96.30
46378;DHT22;32083;47.360;9.650;2023-02-01T19:03:28;6.20;96.20
46378;DHT22;32083;47.360;9.650;2023-02-01T19:05:55;6.10;96.30
46378;DHT22;32083;47.360;9.650;2023-02-01T19:08:21;6.10;96.40
46378;DHT22;32083;47.360;9.650;2023-02-01T19:10:49;6.10;96.50
46378;DHT22;32083;47.360;9.650;2023-02-01T19:13:14;6.20;96.60
46378;DHT22;32083;47.360;9.650;2023-02-01T19:15:41;6.20;96.30
46378;DHT22;32083;47.360;9.650;2023-02-01T19:18:09;6.20;95.90
46378;DHT22;32083;47.360;9.650;2023-02-01T19:20:36;6.20;95.90
46378;DHT22;32083;47.360;9.650;2023-02-01T19:23:08;6.20;96.40
46378;DHT22;32083;47.360;9.650;2023-02-01T19:25:33;6.20;96.30
46378;DHT22;32083;47.360;9.650;2023-02-01T19:28:00;6.20;95.60
46378;DHT22;32083;47.360;9.650;2023-02-01T19:30:26;6.20;95.80